Buenos Aires, Argentina
Current Conditions -  °F | °C
As of 6:00 PM on Sunday 23 Nov 2014 (Local Time) from SABE Reporting Station
Clear Clear  
Wind Chill: 79°   Ceiling: Unl
Heat Index: 80°   Visibility: 6mi
Dew Point: 63°   Wind: 16mph
Humidity: 57%   Direction: 10°N
Pressure: 29.74"   Gusts: NA
Location:  34.61°S, 58.37°W
Report Text: SABE 232100Z 01014KT CAVOK 26/17 Q1007
Loading
Personal Weather Stations






























Interactive Weather Map New forecast layout! Learn more

10-Day Weather Forecast

Advertisements
Track Severe Weather on mobile